LiveATC.Net - Listen to live air traffic control over the Internet!


ICAO: KLFI  IATA: LFI   Airport: Langley Air Force Base
City: Hampton   State/Province: Virginia
Country: United States   Continent:
KLFI METAR Weather: KLFI 210426Z 28006KT 5SM BR OVC002 05/05 A3003 RMK AO2A SLPNO $
KLFI Flight Activity (FlightAware)
KLFI Airport Info   (iFlightPlanner)
KLFI VFR Sectional Chart   (iFlightPlanner) 
KLFI IFR Low Chart   (iFlightPlanner) 

KLFI Del/Gnd/Twr
Feed Status: UP   Listeners: 0
Listen in your browser - HTML5 player (in browser, HTML5)
Click here to listen with your own player (launches your MP3 player)
KLFI Del/Gnd/Twr Audio Archives
FacilityFrequency
Langley Clearance Delivery257.625
Langley Ground275.800
Langley Tower236.600
Langley Tower253.500

NOTICE

Unauthorized use prohibited. See LiveATC.net Terms of Service


Find LiveATC Audio Streams


Airport/ARTCC Code

Frequency Search
(e.g., 124.400, 128.75)
Site-wide search
 


Browse LiveATC Feeds
Top 50 LiveATC Feeds
LiveATC Feed Map
Bad Weather Areas

LiveATC FAQ
Offer LiveATC feed
Contact LiveATC.net
Press Inquiries

LiveATC on iPhone
LiveATC on Android

Windows Phone
Windows 8/10

LiveATC Mobile
(Mobile browser)

ATC Audio Archives
Interesting Recordings

LiveATC Forums


Home Page
About LiveATC.net
Make a Donation
Terms of Use
Privacy Policy

Canadian Air Freqs

AIRMETs/SIGMETs

FAA Airport Status
Nat'l Airspace Status
Arrival Demand Charts


Server Software By:
Icecast.org
Liquidsoap